Robbs, Illinois
Current Conditions -  °F | °C
As of 1:55 PM on Thursday 30 Oct 2014 (Local Time) from KM30 Reporting Station
Clear Clear  
Wind Chill: 62°   Ceiling: Unl
Heat Index: 62°   Visibility: 10mi
Dew Point: 40°   Wind: 3mph
Humidity: 45%   Direction: 150°SSE
Pressure: 30.09"   Gusts: NA
Location:  37.4681°N, 88.7651°W
Report Text: KM30 301855Z AUTO 15003KT 10SM CLR 16/04 A3009 RMK AO2 T01640044
Loading
Personal Weather Stations






























Interactive Weather Map
Tropical Storm Tracking
New forecast layout! Learn more

10-Day Weather Forecast

Advertisements
Track Severe Weather on mobile